Time;durP1;ratioP1;P1;durP2;ratioP2;P2;SDS_P1;SDS_P2;PMS_P1;PMS_P2;Temp;Humidity;BMP_temperature;BMP_pressure;BME280_temperature;BME280_humidity;BME280_pressure;Samples;Min_cycle;Max_cycle;Signal;HPM_P1;HPM_P2
2022/11/12 00:00:28;;;;;;;13.80;9.80;;;4.50;99.90;;;;;;4983654;28;20469;-50
2022/11/12 00:02:55;;;;;;;19.23;11.23;;;4.50;99.90;;;;;;4978813;28;20524;-50
2022/11/12 00:05:21;;;;;;;21.50;10.83;;;4.40;99.90;;;;;;4987618;28;20546;-50
2022/11/12 00:07:48;;;;;;;21.43;11.40;;;4.40;99.90;;;;;;4987610;28;20498;-51
2022/11/12 00:10:15;;;;;;;26.20;12.53;;;4.40;99.90;;;;;;4986004;28;20544;-50
2022/11/12 00:12:44;;;;;;;20.47;13.60;;;4.40;99.90;;;;;;4979932;28;20461;-51
2022/11/12 00:15:11;;;;;;;23.97;12.80;;;4.40;99.90;;;;;;4977535;28;20476;-50
2022/11/12 00:17:38;;;;;;;20.37;11.83;;;4.40;99.90;;;;;;4986502;28;21002;-50
2022/11/12 00:20:06;;;;;;;18.43;11.90;;;4.40;99.90;;;;;;4987390;28;20500;-50
2022/11/12 00:22:33;;;;;;;16.33;10.53;;;4.40;99.90;;;;;;4987306;28;20468;-51
2022/11/12 00:25:00;;;;;;;19.53;10.40;;;4.40;99.90;;;;;;4985933;28;20500;-51
2022/11/12 00:27:27;;;;;;;15.47;11.40;;;4.30;99.90;;;;;;4982524;28;20469;-51
2022/11/12 00:29:54;;;;;;;26.70;11.60;;;4.30;99.90;;;;;;4988492;28;20496;-52
2022/11/12 00:32:21;;;;;;;21.07;12.30;;;4.30;99.90;;;;;;4984445;28;20464;-51
2022/11/12 00:34:48;;;;;;;16.67;10.63;;;4.30;99.90;;;;;;4986475;28;20484;-51
2022/11/12 00:37:15;;;;;;;20.77;12.67;;;4.20;99.90;;;;;;4986354;28;20465;-51
2022/11/12 00:39:42;;;;;;;23.57;13.10;;;4.20;99.90;;;;;;4989116;28;20464;-51
2022/11/12 00:42:08;;;;;;;16.90;10.00;;;4.20;99.90;;;;;;4980048;28;20511;-50
2022/11/12 00:44:35;;;;;;;20.50;12.60;;;4.20;99.90;;;;;;4996302;23;20555;-49
2022/11/12 00:47:03;;;;;;;23.33;13.13;;;4.10;99.90;;;;;;4986563;28;20469;-54
2022/11/12 00:49:30;;;;;;;26.23;12.83;;;4.10;99.90;;;;;;4985040;28;20461;-56
2022/11/12 00:51:56;;;;;;;17.67;10.87;;;4.10;99.90;;;;;;4992911;28;20942;-54
2022/11/12 00:54:23;;;;;;;14.30;9.43;;;4.10;99.90;;;;;;4991463;28;20527;-55
2022/11/12 00:56:50;;;;;;;13.37;7.83;;;4.10;99.90;;;;;;4985792;28;20461;-54
2022/11/12 00:59:16;;;;;;;14.00;8.60;;;4.00;99.90;;;;;;4987402;28;20468;-56
2022/11/12 01:01:43;;;;;;;10.90;8.17;;;4.00;99.90;;;;;;4987373;28;20457;-56
2022/11/12 01:04:11;;;;;;;12.70;8.20;;;4.00;99.90;;;;;;4988042;28;20493;-53
2022/11/12 01:06:40;;;;;;;16.37;9.57;;;4.00;99.90;;;;;;4990933;28;20518;-54
2022/11/12 01:09:07;;;;;;;13.30;7.80;;;4.00;99.90;;;;;;4990403;28;20970;-54
2022/11/12 01:11:33;;;;;;;10.50;7.80;;;4.00;99.90;;;;;;4985648;28;20953;-53
2022/11/12 01:14:02;;;;;;;10.20;8.03;;;4.00;99.90;;;;;;4981204;28;20484;-55
2022/11/12 01:16:31;;;;;;;8.30;6.67;;;3.90;99.90;;;;;;4989921;28;20898;-55
2022/11/12 01:18:59;;;;;;;11.40;8.27;;;3.90;99.90;;;;;;4981967;28;20506;-54
2022/11/12 01:21:29;;;;;;;17.63;7.47;;;4.00;99.90;;;;;;4983082;28;20473;-56
2022/11/12 01:23:57;;;;;;;10.50;8.67;;;3.90;99.90;;;;;;4989968;28;20982;-54
2022/11/12 01:26:27;;;;;;;14.40;7.87;;;3.90;99.90;;;;;;4988849;28;20460;-54
2022/11/12 01:28:54;;;;;;;10.00;8.10;;;3.90;99.90;;;;;;4991621;28;20908;-54
2022/11/12 01:31:23;;;;;;;14.77;8.60;;;3.90;99.90;;;;;;4988417;28;20516;-55
2022/11/12 01:33:55;;;;;;;9.87;8.23;;;3.90;99.90;;;;;;4990620;28;20481;-54
2022/11/12 01:36:22;;;;;;;9.77;7.67;;;3.90;99.90;;;;;;4988586;28;20456;-54
2022/11/12 01:38:52;;;;;;;12.43;8.53;;;3.90;99.90;;;;;;4989876;28;20464;-55
2022/11/12 01:41:21;;;;;;;11.53;8.10;;;3.90;99.90;;;;;;4988181;28;20496;-55
2022/11/12 01:43:48;;;;;;;11.87;8.00;;;3.90;99.90;;;;;;4989329;28;20521;-55
2022/11/12 01:46:21;;;;;;;16.33;8.67;;;3.80;99.90;;;;;;4987483;28;20468;-55
2022/11/12 01:48:52;;;;;;;10.30;8.17;;;3.80;99.90;;;;;;4986711;28;20472;-55
2022/11/12 01:51:21;;;;;;;10.73;7.40;;;3.80;99.90;;;;;;4986287;28;20832;-54
2022/11/12 01:53:53;;;;;;;11.93;8.20;;;3.80;99.90;;;;;;4986580;28;20484;-56
2022/11/12 01:56:22;;;;;;;10.80;7.57;;;3.80;99.90;;;;;;4988762;28;20878;-54
2022/11/12 01:58:53;;;;;;;13.87;8.67;;;3.80;99.90;;;;;;4990010;28;20460;-56
2022/11/12 02:01:20;;;;;;;11.53;7.90;;;3.80;99.90;;;;;;4985386;28;20809;-56
2022/11/12 02:03:46;;;;;;;11.40;7.20;;;3.80;99.90;;;;;;4984115;28;20488;-54
2022/11/12 02:06:14;;;;;;;10.23;6.17;;;3.80;99.90;;;;;;4984062;28;20581;-54
2022/11/12 02:08:42;;;;;;;10.20;8.10;;;3.70;99.90;;;;;;4988304;28;20461;-54
2022/11/12 02:11:15;;;;;;;12.40;7.23;;;3.70;99.90;;;;;;4986564;28;20978;-56
2022/11/12 02:13:59;;;;;;;10.93;7.17;;;3.80;99.90;;;;;;4988884;28;20457;-54
2022/11/12 02:16:30;;;;;;;8.87;6.17;;;3.80;99.90;;;;;;4986613;28;20532;-56
2022/11/12 02:18:57;;;;;;;9.83;6.70;;;3.70;99.90;;;;;;4989806;28;20469;-55
2022/11/12 02:21:25;;;;;;;9.63;7.00;;;3.70;99.90;;;;;;4990990;28;20527;-55
2022/11/12 02:24:00;;;;;;;9.23;6.80;;;3.70;99.90;;;;;;4984268;28;20547;-54
2022/11/12 02:26:30;;;;;;;8.20;7.07;;;3.70;99.90;;;;;;4982007;28;20460;-55
2022/11/12 02:28:56;;;;;;;12.93;6.93;;;3.70;99.90;;;;;;4990709;28;20511;-55
2022/11/12 02:31:23;;;;;;;7.70;6.60;;;3.70;99.90;;;;;;4990556;28;21312;-53
2022/11/12 02:33:50;;;;;;;12.30;7.00;;;3.60;99.90;;;;;;4989795;28;20480;-55
2022/11/12 02:36:17;;;;;;;7.40;6.33;;;3.60;99.90;;;;;;4988371;28;20469;-55
2022/11/12 02:38:45;;;;;;;7.00;6.30;;;3.60;99.90;;;;;;4985144;28;20509;-55
2022/11/12 02:41:11;;;;;;;6.97;6.00;;;3.60;99.90;;;;;;4985583;28;20518;-55
2022/11/12 02:43:38;;;;;;;9.33;6.00;;;3.60;99.90;;;;;;4990145;28;20961;-55
2022/11/12 02:46:05;;;;;;;10.10;6.10;;;3.60;99.90;;;;;;4986986;28;20485;-54
2022/11/12 02:48:31;;;;;;;9.40;5.70;;;3.60;99.90;;;;;;4990039;28;20973;-54
2022/11/12 02:50:58;;;;;;;6.87;5.57;;;3.50;99.90;;;;;;4988108;28;20519;-55
2022/11/12 02:53:25;;;;;;;6.33;5.50;;;3.60;99.90;;;;;;4988471;28;20515;-55
2022/11/12 02:55:53;;;;;;;6.87;6.17;;;3.50;99.90;;;;;;4988556;28;20514;-53
2022/11/12 02:58:21;;;;;;;6.10;5.40;;;3.40;99.90;;;;;;4985882;28;20531;-54
2022/11/12 03:00:48;;;;;;;6.80;5.93;;;3.40;99.90;;;;;;4990158;28;20511;-55
2022/11/12 03:03:15;;;;;;;7.97;6.30;;;3.40;99.90;;;;;;4986408;28;20457;-55
2022/11/12 03:05:41;;;;;;;10.20;6.90;;;3.40;99.90;;;;;;4989705;28;21036;-55
2022/11/12 03:08:09;;;;;;;7.10;6.00;;;3.40;99.90;;;;;;4991074;28;20835;-53
2022/11/12 03:10:37;;;;;;;8.57;6.30;;;3.40;99.90;;;;;;4999406;28;20465;-55
2022/11/12 03:13:06;;;;;;;9.87;6.50;;;3.40;99.90;;;;;;4997979;28;20472;-54
2022/11/12 03:15:33;;;;;;;9.40;6.93;;;3.40;99.90;;;;;;4996883;28;20920;-55
2022/11/12 03:18:00;;;;;;;9.20;7.23;;;3.40;99.90;;;;;;4993104;28;20493;-57
2022/11/12 03:20:27;;;;;;;8.27;6.93;;;3.40;99.90;;;;;;4991293;28;20461;-65
2022/11/12 03:22:57;;;;;;;9.50;7.27;;;3.40;99.90;;;;;;4988102;28;20865;-67
2022/11/12 03:25:25;;;;;;;12.17;7.60;;;3.30;99.90;;;;;;4997162;28;20484;-55
2022/11/12 03:27:57;;;;;;;11.00;7.53;;;3.30;99.90;;;;;;4996600;28;20460;-70
2022/11/12 03:30:26;;;;;;;14.50;8.23;;;3.30;99.90;;;;;;4990144;28;20511;-60
2022/11/12 03:32:52;;;;;;;8.50;7.20;;;3.30;99.90;;;;;;4991020;28;20473;-54
2022/11/12 03:35:19;;;;;;;8.00;6.53;;;3.20;99.90;;;;;;4996556;28;20516;-60
2022/11/12 03:37:46;;;;;;;7.50;6.33;;;3.30;99.90;;;;;;4996292;28;20461;-61
2022/11/12 03:40:13;;;;;;;10.90;7.07;;;3.20;99.90;;;;;;4998655;28;20492;-69
2022/11/12 03:42:44;;;;;;;10.70;6.57;;;3.20;99.90;;;;;;4996902;28;20526;-55
2022/11/12 03:45:10;;;;;;;11.20;6.20;;;3.20;99.90;;;;;;4990210;28;21181;-55
2022/11/12 03:47:41;;;;;;;11.50;7.73;;;3.10;99.90;;;;;;4997272;28;20528;-61
2022/11/12 03:50:09;;;;;;;8.40;6.17;;;3.20;99.90;;;;;;4998527;28;20472;-56
2022/11/12 03:52:35;;;;;;;16.23;5.93;;;3.10;99.90;;;;;;4995078;28;20468;-57
2022/11/12 03:55:02;;;;;;;8.30;5.30;;;3.10;99.90;;;;;;4995266;28;20477;-56
2022/11/12 03:57:28;;;;;;;7.27;5.57;;;3.10;99.90;;;;;;5000260;28;20471;-57
2022/11/12 03:59:55;;;;;;;7.23;6.07;;;3.10;99.90;;;;;;5003464;28;20507;-57
2022/11/12 04:02:24;;;;;;;5.50;5.00;;;3.10;99.90;;;;;;4993825;28;20517;-56
2022/11/12 04:10:21;;;;;;;6.77;4.73;;;3.00;99.90;;;;;;4985583;28;22176;-55
2022/11/12 04:15:32;;;;;;;7.57;5.27;;;3.10;99.90;;;;;;4988004;28;22140;-55
2022/11/12 04:23:28;;;;;;;8.57;5.10;;;3.00;99.90;;;;;;4986105;28;22690;-54
2022/11/12 04:30:14;;;;;;;8.17;5.50;;;2.90;99.90;;;;;;4987484;28;20595;-56
2022/11/12 04:31:25;;;;;;;8.33;5.57;;;2.90;99.90;;;;;;4987215;28;20552;-55
2022/11/12 04:33:51;;;;;;;6.43;5.80;;;2.90;99.90;;;;;;4990108;28;20563;-55
2022/11/12 04:36:19;;;;;;;6.97;5.50;;;2.90;99.90;;;;;;4989752;28;20674;-54
2022/11/12 04:38:46;;;;;;;13.57;9.10;;;2.80;99.90;;;;;;4988813;28;20464;-55
2022/11/12 04:46:40;;;;;;;12.00;7.00;;;2.70;99.90;;;;;;4955670;28;20484;-54
2022/11/12 04:49:07;;;;;;;19.60;11.93;;;2.70;99.90;;;;;;4990013;28;20464;-56
2022/11/12 04:54:19;;;;;;;10.03;7.60;;;2.70;99.90;;;;;;4984892;28;20537;-55
2022/11/12 04:56:46;;;;;;;9.00;6.30;;;2.70;99.90;;;;;;4982237;28;20529;-56
2022/11/12 04:59:12;;;;;;;7.63;5.90;;;2.70;99.90;;;;;;4989194;28;20465;-56
2022/11/12 05:01:39;;;;;;;8.97;5.33;;;2.70;99.90;;;;;;4984993;28;20512;-55
2022/11/12 05:04:05;;;;;;;9.23;5.00;;;2.70;99.90;;;;;;4992517;28;20555;-55
2022/11/12 05:09:18;;;;;;;5.30;4.80;;;2.60;99.90;;;;;;4990742;28;20960;-55
2022/11/12 05:11:44;;;;;;;5.63;5.13;;;2.60;99.90;;;;;;4990874;28;20460;-55
2022/11/12 05:14:11;;;;;;;5.43;4.90;;;2.60;99.90;;;;;;4990376;28;21013;-55
2022/11/12 05:16:38;;;;;;;5.20;4.30;;;2.60;99.90;;;;;;4991822;28;20456;-56
2022/11/12 05:19:05;;;;;;;9.93;5.57;;;2.60;99.90;;;;;;4989083;28;20460;-55
2022/11/12 05:24:17;;;;;;;8.03;6.07;;;2.50;99.90;;;;;;4988736;28;20554;-55
2022/11/12 05:26:44;;;;;;;6.50;5.50;;;2.50;99.90;;;;;;4989404;28;20905;-55
2022/11/12 05:29:11;;;;;;;6.50;5.10;;;2.50;99.90;;;;;;4988676;28;20464;-55
2022/11/12 05:31:37;;;;;;;8.00;5.43;;;2.50;99.90;;;;;;4988474;28;20465;-54
2022/11/12 05:34:04;;;;;;;6.63;4.57;;;2.50;99.90;;;;;;4986658;28;20488;-54
2022/11/12 05:36:31;;;;;;;7.13;5.10;;;2.50;99.90;;;;;;4988926;28;20854;-55
2022/11/12 05:38:57;;;;;;;7.13;4.53;;;2.50;99.90;;;;;;4987917;28;20467;-54
2022/11/12 05:41:25;;;;;;;5.80;4.57;;;2.40;99.90;;;;;;4988389;28;20579;-54
2022/11/12 05:43:52;;;;;;;6.20;4.20;;;2.50;99.90;;;;;;4987563;28;20488;-54
2022/11/12 05:46:19;;;;;;;6.73;4.43;;;2.50;99.90;;;;;;4984267;28;20484;-55
2022/11/12 05:48:45;;;;;;;7.07;4.93;;;2.40;99.90;;;;;;4989841;28;20534;-54
2022/11/12 05:51:13;;;;;;;6.03;5.03;;;2.40;99.90;;;;;;4990349;28;20527;-55
2022/11/12 05:53:40;;;;;;;8.77;4.40;;;2.30;99.90;;;;;;4990260;28;20970;-55
2022/11/12 05:56:08;;;;;;;5.80;4.37;;;2.30;99.90;;;;;;4990899;28;20469;-55
2022/11/12 05:58:36;;;;;;;4.87;4.37;;;2.30;99.90;;;;;;4986100;28;20766;-55
2022/11/12 06:01:03;;;;;;;6.00;4.90;;;2.30;99.90;;;;;;4986053;28;20474;-54
2022/11/12 06:03:30;;;;;;;5.33;4.70;;;2.30;99.90;;;;;;4983572;28;20473;-54
2022/11/12 06:05:57;;;;;;;5.93;3.67;;;2.30;99.90;;;;;;4986635;28;20480;-55
2022/11/12 06:08:24;;;;;;;4.80;4.40;;;2.30;99.90;;;;;;4986306;28;20465;-58
2022/11/12 06:10:52;;;;;;;5.87;4.70;;;2.30;99.90;;;;;;4996255;28;20882;-55
2022/11/12 06:13:19;;;;;;;4.63;4.13;;;2.30;99.90;;;;;;4991284;28;20464;-54
2022/11/12 06:15:47;;;;;;;5.67;4.30;;;2.30;99.90;;;;;;4989473;28;21681;-55
2022/11/12 06:18:13;;;;;;;8.30;5.70;;;2.40;99.90;;;;;;4987630;28;20491;-55
2022/11/12 06:20:40;;;;;;;5.90;4.40;;;2.40;99.90;;;;;;4987088;28;20465;-55
2022/11/12 06:23:07;;;;;;;4.73;4.30;;;2.50;99.90;;;;;;4988815;28;20531;-55
2022/11/12 06:25:33;;;;;;;11.10;3.63;;;2.60;99.90;;;;;;4989042;28;20507;-54
2022/11/12 06:28:00;;;;;;;7.10;4.67;;;2.70;99.90;;;;;;4986035;28;20461;-54
2022/11/12 06:30:27;;;;;;;4.57;4.17;;;2.70;99.90;;;;;;4990088;28;20457;-54
2022/11/12 06:32:55;;;;;;;4.90;3.57;;;2.80;99.90;;;;;;4987591;28;20468;-54
2022/11/12 06:35:21;;;;;;;4.80;4.40;;;2.90;99.90;;;;;;4988511;28;20488;-55
2022/11/12 06:37:49;;;;;;;7.60;4.50;;;2.90;99.90;;;;;;4983491;28;20962;-54
2022/11/12 06:40:15;;;;;;;5.50;4.53;;;2.90;99.90;;;;;;4978010;28;20465;-54
2022/11/12 06:42:42;;;;;;;8.60;4.37;;;3.00;99.90;;;;;;4976670;28;20492;-54
2022/11/12 06:45:09;;;;;;;5.87;4.13;;;2.90;99.90;;;;;;4999888;23;21564;-52
2022/11/12 06:47:36;;;;;;;4.97;4.57;;;2.90;99.90;;;;;;4995091;28;20937;-51
2022/11/12 06:50:05;;;;;;;7.27;3.90;;;2.90;99.90;;;;;;4995614;28;20460;-52
2022/11/12 06:52:31;;;;;;;4.50;4.10;;;2.90;99.90;;;;;;4985626;28;20496;-52
2022/11/12 06:54:58;;;;;;;6.43;3.87;;;3.00;99.90;;;;;;4996898;28;21095;-50
2022/11/12 06:57:24;;;;;;;6.80;4.20;;;3.00;99.90;;;;;;4986851;28;20863;-51
2022/11/12 06:59:51;;;;;;;4.73;3.80;;;3.10;99.90;;;;;;4984828;28;20530;-51
2022/11/12 07:02:18;;;;;;;7.10;5.23;;;3.30;99.90;;;;;;4983233;28;20543;-52
2022/11/12 07:04:44;;;;;;;4.93;3.53;;;3.40;99.90;;;;;;4986847;28;20550;-50
2022/11/12 07:07:12;;;;;;;7.10;4.50;;;3.50;99.90;;;;;;4989681;28;20519;-51
2022/11/12 07:09:39;;;;;;;7.73;4.60;;;3.60;99.90;;;;;;4987803;28;20461;-51
2022/11/12 07:12:06;;;;;;;4.57;4.20;;;3.80;99.90;;;;;;4984218;28;20829;-51
2022/11/12 07:14:32;;;;;;;4.80;4.30;;;3.90;99.90;;;;;;4984206;28;20559;-51
2022/11/12 07:16:59;;;;;;;5.17;4.67;;;4.00;99.90;;;;;;4984489;28;20527;-52
2022/11/12 07:19:26;;;;;;;7.70;5.90;;;4.10;99.90;;;;;;4986279;28;22935;-51
2022/11/12 07:21:53;;;;;;;7.23;4.73;;;4.20;99.90;;;;;;4985405;28;20539;-51
2022/11/12 07:24:20;;;;;;;11.30;7.20;;;4.30;99.90;;;;;;4977516;28;20488;-52
2022/11/12 07:26:47;;;;;;;16.00;8.97;;;4.40;99.90;;;;;;4987239;28;20538;-53
2022/11/12 07:29:14;;;;;;;10.73;8.73;;;4.60;99.90;;;;;;4985490;28;20484;-52
2022/11/12 07:31:40;;;;;;;9.13;7.30;;;4.60;99.90;;;;;;4976571;28;20496;-52
2022/11/12 07:34:07;;;;;;;10.10;6.37;;;4.80;99.90;;;;;;4982755;28;20472;-53
2022/11/12 07:36:33;;;;;;;7.47;6.43;;;4.90;99.90;;;;;;4981750;28;21072;-53
2022/11/12 07:39:00;;;;;;;10.83;6.70;;;5.20;99.90;;;;;;4987163;28;20530;-53
2022/11/12 07:41:28;;;;;;;6.00;5.40;;;5.30;99.90;;;;;;4982096;28;20488;-52
2022/11/12 07:43:55;;;;;;;9.90;7.90;;;5.40;99.90;;;;;;4989633;28;20453;-51
2022/11/12 07:46:23;;;;;;;12.87;9.40;;;5.50;99.90;;;;;;4969802;28;21301;-51
2022/11/12 07:48:50;;;;;;;9.00;7.30;;;5.60;99.90;;;;;;4978759;28;20484;-52
2022/11/12 07:51:19;;;;;;;9.60;8.03;;;5.80;99.90;;;;;;4979748;28;20510;-52
2022/11/12 07:53:47;;;;;;;11.73;10.13;;;5.80;99.90;;;;;;4980414;28;20574;-52
2022/11/12 07:56:16;;;;;;;12.90;10.33;;;6.00;99.90;;;;;;4983471;28;20538;-51
2022/11/12 07:58:44;;;;;;;18.70;13.43;;;6.00;99.90;;;;;;4983713;28;20496;-51
2022/11/12 08:01:28;;;;;;;25.50;17.03;;;6.10;99.90;;;;;;4979551;28;20492;-51
2022/11/12 08:03:55;;;;;;;12.60;10.60;;;6.20;99.90;;;;;;4978525;28;20488;-51
2022/11/12 08:06:21;;;;;;;16.27;12.07;;;6.30;99.90;;;;;;4979765;28;20957;-51
2022/11/12 08:08:51;;;;;;;15.97;10.20;;;6.40;99.90;;;;;;4984773;28;20460;-51
2022/11/12 08:11:17;;;;;;;12.63;9.80;;;6.50;99.90;;;;;;4977846;28;20993;-51
2022/11/12 08:13:45;;;;;;;11.83;9.47;;;6.60;99.90;;;;;;4984750;28;20576;-51
2022/11/12 08:16:12;;;;;;;13.07;9.73;;;6.70;99.90;;;;;;4980105;28;20567;-53
2022/11/12 08:18:39;;;;;;;15.23;11.33;;;6.90;99.90;;;;;;4981638;28;20460;-52
2022/11/12 08:21:07;;;;;;;13.77;9.27;;;7.00;99.90;;;;;;4978697;28;20587;-52
2022/11/12 08:23:34;;;;;;;14.87;9.30;;;7.00;99.90;;;;;;4979583;28;20489;-51
2022/11/12 08:26:02;;;;;;;12.30;9.13;;;7.20;99.90;;;;;;4985524;28;20492;-51
2022/11/12 08:28:29;;;;;;;12.40;8.07;;;7.30;99.90;;;;;;4982330;28;20496;-51
2022/11/12 08:30:58;;;;;;;14.13;8.03;;;8.10;99.90;;;;;;4985229;28;20588;-50
2022/11/12 08:33:24;;;;;;;14.40;7.73;;;8.70;99.90;;;;;;4982430;28;21591;-51
2022/11/12 08:35:51;;;;;;;8.40;7.50;;;9.60;99.90;;;;;;4985152;28;20927;-52
2022/11/12 08:38:18;;;;;;;17.90;8.00;;;10.70;82.40;;;;;;4982569;28;20461;-51
2022/11/12 08:40:44;;;;;;;12.33;8.90;;;11.00;99.90;;;;;;4981285;28;20475;-51
2022/11/12 08:43:11;;;;;;;15.20;9.37;;;12.30;99.90;;;;;;4976618;28;20554;-52
2022/11/12 08:45:39;;;;;;;11.07;8.10;;;11.90;99.90;;;;;;4982979;28;20609;-51
2022/11/12 08:48:09;;;;;;;20.90;8.23;;;11.40;99.90;;;;;;4978598;28;20485;-51
2022/11/12 08:50:37;;;;;;;14.77;9.83;;;11.20;99.20;;;;;;4975675;28;20484;-52
2022/11/12 08:53:05;;;;;;;15.13;10.17;;;10.90;87.60;;;;;;4985200;28;20500;-52
2022/11/12 08:55:33;;;;;;;13.43;10.07;;;10.70;70.70;;;;;;4980398;28;21003;-52
2022/11/12 08:58:01;;;;;;;15.67;10.73;;;10.40;50.00;;;;;;4982906;28;20460;-52
2022/11/12 09:00:28;;;;;;;21.47;11.30;;;10.30;36.40;;;;;;4980326;28;20472;-52
2022/11/12 09:02:55;;;;;;;15.00;10.80;;;10.20;27.80;;;;;;4983393;28;20456;-51
2022/11/12 09:05:23;;;;;;;16.40;10.50;;;10.10;99.90;;;;;;4979739;28;20512;-52
2022/11/12 09:07:56;;;;;;;19.70;12.00;;;10.10;99.90;;;;;;4984977;28;20520;-52
2022/11/12 09:10:23;;;;;;;17.67;11.67;;;10.00;99.90;;;;;;4988354;28;20474;-52
2022/11/12 09:12:51;;;;;;;41.33;12.70;;;10.00;99.90;;;;;;4980976;28;20974;-52
2022/11/12 09:15:18;;;;;;;17.20;13.00;;;10.10;99.90;;;;;;4988581;28;21012;-52
2022/11/12 09:17:44;;;;;;;16.83;11.07;;;10.10;99.90;;;;;;4979950;28;20876;-51
2022/11/12 09:20:11;;;;;;;17.27;11.43;;;10.20;99.90;;;;;;4983868;28;20520;-52
2022/11/12 09:22:39;;;;;;;16.43;11.30;;;10.40;99.90;;;;;;4991738;28;20483;-51
2022/11/12 09:25:07;;;;;;;19.87;11.80;;;10.50;99.90;;;;;;4993461;28;20492;-51
2022/11/12 09:27:33;;;;;;;16.70;12.20;;;11.50;99.90;;;;;;4994292;28;20484;-51
2022/11/12 09:30:00;;;;;;;18.47;11.73;;;12.60;70.60;;;;;;4993999;28;20461;-52
2022/11/12 09:32:26;;;;;;;19.40;11.00;;;13.30;99.40;;;;;;4992797;28;20514;-52
2022/11/12 09:34:53;;;;;;;14.97;12.13;;;13.50;99.90;;;;;;4994183;28;20546;-55
2022/11/12 09:37:19;;;;;;;19.70;12.83;;;13.60;99.90;;;;;;4987324;28;20488;-53
2022/11/12 09:39:47;;;;;;;25.13;12.50;;;13.80;99.90;;;;;;4988692;28;20468;-54
2022/11/12 09:42:17;;;;;;;23.60;12.43;;;14.50;99.90;;;;;;4992295;28;20523;-54
2022/11/12 09:44:54;;;;;;;18.80;11.63;;;15.20;99.90;;;;;;4993015;28;20464;-53
2022/11/12 09:47:27;;;;;;;21.77;12.23;;;15.50;99.90;;;;;;4989497;28;20869;-54
2022/11/12 09:50:02;;;;;;;21.90;11.70;;;15.30;99.90;;;;;;4993087;28;20974;-54
2022/11/12 09:52:30;;;;;;;17.83;10.83;;;16.40;99.90;;;;;;4986978;28;20464;-54
2022/11/12 09:55:04;;;;;;;14.60;11.03;;;16.60;24.50;;;;;;4991974;28;20558;-54
2022/11/12 09:57:32;;;;;;;19.03;10.83;;;15.80;21.50;;;;;;4990760;28;20460;-52
2022/11/12 10:00:01;;;;;;;23.10;11.73;;;16.20;99.90;;;;;;4986928;28;20471;-51
2022/11/12 10:02:32;;;;;;;19.33;10.40;;;16.90;40.80;;;;;;4989368;28;20475;-51
2022/11/12 10:05:12;;;;;;;19.47;10.63;;;17.10;38.80;;;;;;4992295;28;20476;-52
2022/11/12 10:07:48;;;;;;;24.70;12.00;;;16.80;37.60;;;;;;4986790;28;20512;-51
2022/11/12 10:10:20;;;;;;;23.00;12.37;;;15.60;99.90;;;;;;4992085;28;20456;-52
2022/11/12 10:13:01;;;;;;;18.37;11.40;;;15.20;99.90;;;;;;4990794;28;20492;-52
2022/11/12 10:18:38;;;;;;;14.50;9.83;;;13.80;99.90;;;;;;4988070;28;21017;-52
2022/11/12 10:21:14;;;;;;;15.00;8.50;;;13.60;99.90;;;;;;4987971;28;20464;-52
2022/11/12 10:23:43;;;;;;;14.03;9.30;;;13.40;99.90;;;;;;4984878;28;20472;-52
2022/11/12 10:26:15;;;;;;;12.27;8.87;;;13.30;98.40;;;;;;4987115;28;20480;-52
2022/11/12 10:28:45;;;;;;;15.93;9.27;;;13.10;81.30;;;;;;4987835;28;20574;-52
2022/11/12 10:31:14;;;;;;;10.70;8.60;;;13.00;82.30;;;;;;4987592;28;20761;-51
2022/11/12 10:33:41;;;;;;;11.77;8.30;;;12.70;71.90;;;;;;4984565;28;20465;-52
2022/11/12 10:36:28;;;;;;;11.97;8.73;;;12.80;62.60;;;;;;4985705;28;21000;-52
2022/11/12 10:38:55;;;;;;;14.37;8.47;;;12.90;65.70;;;;;;4978795;28;20985;-52
2022/11/12 10:41:26;;;;;;;14.50;8.33;;;12.80;59.10;;;;;;4984581;28;20468;-52
2022/11/12 10:43:58;;;;;;;13.77;9.50;;;12.90;55.10;;;;;;4989014;28;20464;-52
2022/11/12 10:46:26;;;;;;;14.77;9.20;;;13.00;71.20;;;;;;4989827;28;20554;-51
2022/11/12 10:48:57;;;;;;;12.93;8.40;;;13.00;73.50;;;;;;4985273;28;20484;-52
2022/11/12 10:51:26;;;;;;;19.27;9.50;;;13.00;69.70;;;;;;4987360;28;20468;-52
2022/11/12 10:53:53;;;;;;;14.70;8.77;;;13.00;68.30;;;;;;4988312;28;20500;-51
2022/11/12 10:56:29;;;;;;;17.37;9.73;;;13.00;69.30;;;;;;4986250;28;20562;-51
2022/11/12 10:59:16;;;;;;;12.77;8.80;;;13.10;70.20;;;;;;4983029;28;20492;-51
2022/11/12 11:01:43;;;;;;;14.30;8.93;;;13.10;72.70;;;;;;4987380;28;20844;-51
2022/11/12 11:04:22;;;;;;;14.10;9.07;;;13.20;65.10;;;;;;4988961;28;20461;-52
2022/11/12 11:06:58;;;;;;;15.63;9.97;;;13.40;73.10;;;;;;4988517;28;20479;-52
2022/11/12 11:09:25;;;;;;;13.20;8.70;;;13.40;80.30;;;;;;4992208;28;20514;-51
2022/11/12 11:11:54;;;;;;;11.83;8.77;;;13.50;85.50;;;;;;4992693;28;20507;-52
2022/11/12 11:14:30;;;;;;;18.43;9.40;;;13.40;82.30;;;;;;4991516;28;20527;-51
2022/11/12 11:17:00;;;;;;;16.27;9.00;;;13.30;69.40;;;;;;4992626;28;20445;-51
2022/11/12 11:19:36;;;;;;;16.97;9.80;;;13.30;74.60;;;;;;4984363;28;20469;-51
2022/11/12 11:22:30;;;;;;;12.20;8.37;;;13.60;76.90;;;;;;4987388;28;20457;-52
2022/11/12 11:25:17;;;;;;;12.63;8.87;;;13.50;69.00;;;;;;4990546;28;20903;-51
2022/11/12 11:27:56;;;;;;;16.00;8.40;;;13.40;81.90;;;;;;4973063;28;20572;-51
2022/11/12 11:30:22;;;;;;;22.23;9.20;;;13.40;64.90;;;;;;4990638;28;20514;-51
2022/11/12 11:33:29;;;;;;;20.33;9.00;;;13.30;64.20;;;;;;4990963;28;20511;-51
2022/11/12 11:36:08;;;;;;;17.47;9.70;;;13.40;60.90;;;;;;4984733;28;20527;-51
2022/11/12 11:38:47;;;;;;;12.93;8.43;;;13.50;78.70;;;;;;4990340;28;20507;-52
2022/11/12 11:41:29;;;;;;;12.77;8.70;;;13.60;79.70;;;;;;4989232;28;20456;-51
2022/11/12 11:44:05;;;;;;;16.40;9.70;;;13.70;78.60;;;;;;4990561;28;20547;-51
2022/11/12 11:46:47;;;;;;;13.00;7.90;;;13.70;79.40;;;;;;4990646;28;20550;-51
2022/11/12 11:49:54;;;;;;;16.43;8.50;;;14.10;87.90;;;;;;4982510;28;20468;-51
2022/11/12 11:52:40;;;;;;;20.43;9.07;;;14.10;83.60;;;;;;4930217;29;20463;-51
2022/11/12 11:55:23;;;;;;;11.97;8.67;;;15.00;99.90;;;;;;4977030;28;20552;-52
2022/11/12 11:57:58;;;;;;;15.37;9.00;;;15.40;99.90;;;;;;4988562;28;20448;-51
2022/11/12 12:00:31;;;;;;;16.33;8.30;;;16.30;99.90;;;;;;4987992;28;20495;-51
2022/11/12 12:03:11;;;;;;;16.20;9.10;;;16.70;99.90;;;;;;4990212;28;20575;-52
2022/11/12 12:05:42;;;;;;;14.30;7.80;;;18.60;45.30;;;;;;4990302;28;20484;-51
2022/11/12 12:08:16;;;;;;;11.60;7.73;;;19.00;83.50;;;;;;4990600;28;20493;-51
2022/11/12 12:10:52;;;;;;;15.83;8.73;;;19.50;90.40;;;;;;4984240;28;20496;-51
2022/11/12 12:13:27;;;;;;;11.50;7.20;;;21.20;99.90;;;;;;4988333;28;20464;-52
2022/11/12 12:16:17;;;;;;;13.37;8.07;;;19.60;99.90;;;;;;4989862;28;20484;-51
2022/11/12 12:18:51;;;;;;;16.20;7.70;;;18.10;89.00;;;;;;4976032;28;20461;-52
2022/11/12 12:21:19;;;;;;;13.27;7.70;;;18.10;76.00;;;;;;4989374;28;20551;-51
2022/11/12 12:23:48;;;;;;;10.70;7.70;;;17.30;64.50;;;;;;4981875;28;20874;-53
2022/11/12 12:26:20;;;;;;;12.20;8.23;;;16.90;56.60;;;;;;4989212;28;20488;-51
2022/11/12 12:28:53;;;;;;;14.80;8.17;;;16.50;31.00;;;;;;4988729;28;20491;-52
2022/11/12 12:31:26;;;;;;;16.93;8.57;;;15.90;99.90;;;;;;4987981;28;21016;-52
2022/11/12 12:33:56;;;;;;;12.30;7.73;;;15.40;99.90;;;;;;4989393;28;20539;-51
2022/11/12 12:36:26;;;;;;;11.23;7.53;;;15.00;99.90;;;;;;4988648;28;20805;-51
2022/11/12 12:39:01;;;;;;;10.47;7.33;;;14.80;99.90;;;;;;4989595;28;20527;-52
2022/11/12 12:41:33;;;;;;;10.47;7.27;;;14.90;99.90;;;;;;4990696;28;20448;-51
2022/11/12 12:44:04;;;;;;;14.00;8.40;;;15.10;99.90;;;;;;4991561;28;20495;-52
2022/11/12 12:46:38;;;;;;;10.60;7.33;;;15.50;99.90;;;;;;4992991;28;20488;-52
2022/11/12 12:49:07;;;;;;;13.60;7.10;;;15.30;99.90;;;;;;4993494;28;20969;-50
2022/11/12 12:51:34;;;;;;;17.20;8.67;;;15.30;99.90;;;;;;4991094;28;20460;-51
2022/11/12 12:54:01;;;;;;;11.73;7.53;;;15.60;99.90;;;;;;4993539;28;20471;-51
2022/11/12 12:56:46;;;;;;;13.50;6.97;;;15.60;99.90;;;;;;4993285;28;20562;-51
2022/11/12 12:59:22;;;;;;;10.77;6.10;;;15.40;99.90;;;;;;4992870;28;20456;-52
2022/11/12 13:01:57;;;;;;;11.70;7.10;;;15.70;99.90;;;;;;4993960;28;20455;-52
2022/11/12 13:04:50;;;;;;;13.20;6.37;;;16.40;29.50;;;;;;4991956;28;20557;-51
2022/11/12 13:07:17;;;;;;;14.00;5.80;;;16.80;40.00;;;;;;4994402;28;20468;-51
2022/11/12 13:09:44;;;;;;;14.47;7.10;;;16.40;34.20;;;;;;4994770;28;20532;-52
2022/11/12 13:12:22;;;;;;;11.97;7.37;;;16.40;31.80;;;;;;4990213;28;20464;-52
2022/11/12 13:15:08;;;;;;;16.00;7.60;;;16.80;39.00;;;;;;4987371;28;20496;-52
2022/11/12 13:17:51;;;;;;;10.43;6.83;;;16.70;37.30;;;;;;4992339;28;20464;-53
2022/11/12 13:20:36;;;;;;;6.80;6.17;;;16.10;31.90;;;;;;4989524;28;20464;-52
2022/11/12 13:23:05;;;;;;;12.10;7.77;;;16.40;33.30;;;;;;4994069;28;20467;-52
2022/11/12 13:25:32;;;;;;;14.50;5.67;;;16.90;51.70;;;;;;4982121;28;20850;-51
2022/11/12 13:28:10;;;;;;;10.63;5.93;;;17.40;59.70;;;;;;4991008;28;20509;-51
2022/11/12 13:30:58;;;;;;;10.07;6.73;;;17.10;52.20;;;;;;4993526;28;20460;-52